Time;durP1;ratioP1;P1;durP2;ratioP2;P2;SDS_P1;SDS_P2;PMS_P1;PMS_P2;Temp;Humidity;BMP_temperature;BMP_pressure;BME280_temperature;BME280_humidity;BME280_pressure;Samples;Min_cycle;Max_cycle;Signal;HPM_P1;HPM_P2
2023/08/18 00:01:14;;;;;;;;;;;;;;;25.20;47.67;102055.00;5056243;28;19928;-63
2023/08/18 00:03:39;;;;;;;;;;;;;;;25.22;47.55;102058.28;5053637;28;20267;-64
2023/08/18 00:06:05;;;;;;;;;;;;;;;25.21;47.65;102050.47;5050552;28;20001;-64
2023/08/18 00:08:30;;;;;;;;;;;;;;;25.22;47.51;102058.28;5055924;28;19927;-64
2023/08/18 00:10:56;;;;;;;;;;;;;;;25.19;47.48;102056.00;5062643;28;19916;-63
2023/08/18 00:13:21;;;;;;;;;;;;;;;25.17;47.88;102046.53;5081364;27;20398;-64
2023/08/18 00:15:46;;;;;;;;;;;;;;;25.20;47.51;102040.84;5057605;28;19916;-64
2023/08/18 00:18:12;;;;;;;;;;;;;;;25.17;47.75;102042.03;5058709;28;19949;-63
2023/08/18 00:20:37;;;;;;;;;;;;;;;25.17;47.63;102050.03;5060567;28;19920;-65
2023/08/18 00:23:02;;;;;;;;;;;;;;;25.20;47.36;102041.66;5091639;28;20017;-64
2023/08/18 00:25:28;;;;;;;;;;;;;;;25.22;47.41;102049.47;5059084;28;19975;-64
2023/08/18 00:27:54;;;;;;;;;;;;;;;25.20;47.59;102051.50;5055861;28;19964;-64
2023/08/18 00:30:24;;;;;;;;;;;;;;;25.19;47.57;102048.00;5062932;28;20470;-64
2023/08/18 00:32:50;;;;;;;;;;;;;;;25.20;47.50;102041.66;5057026;28;19920;-63
2023/08/18 00:35:15;;;;;;;;;;;;;;;25.18;47.65;102041.03;5051362;28;19920;-63
2023/08/18 00:37:42;;;;;;;;;;;;;;;25.18;47.48;102041.03;5054864;28;19921;-63
2023/08/18 00:40:09;;;;;;;;;;;;;;;25.19;47.66;102031.19;5043733;28;19920;-63
2023/08/18 00:42:34;;;;;;;;;;;;;;;25.20;47.44;102033.66;5056506;28;19928;-64
2023/08/18 00:44:59;;;;;;;;;;;;;;;25.19;47.57;102031.19;5057007;28;19921;-64
2023/08/18 00:47:26;;;;;;;;;;;;;;;25.19;47.75;102034.69;5057856;28;19923;-64
2023/08/18 00:49:53;;;;;;;;;;;;;;;25.17;47.64;102033.22;5058744;28;19920;-64
2023/08/18 00:52:19;;;;;;;;;;;;;;;25.20;47.81;102030.16;5086699;28;19969;-63
2023/08/18 00:54:48;;;;;;;;;;;;;;;25.22;47.39;102017.47;5070373;28;19920;-64
2023/08/18 00:57:13;;;;;;;;;;;;;;;25.18;47.45;102014.38;5098476;28;19950;-66
2023/08/18 00:59:39;;;;;;;;;;;;;;;25.19;47.31;102021.34;5057094;28;20391;-63
2023/08/18 01:02:04;;;;;;;;;;;;;;;25.17;47.73;102019.88;5056304;28;19924;-62
2023/08/18 01:04:31;;;;;;;;;;;;;;;25.18;47.42;102024.19;5051713;28;19924;-64
2023/08/18 01:06:56;;;;;;;;;;;;;;;25.19;47.32;102018.69;5053113;28;19920;-64
2023/08/18 01:09:24;;;;;;;;;;;;;;;25.16;47.48;102021.72;5055660;28;19920;-63
2023/08/18 01:11:50;;;;;;;;;;;;;;;25.16;47.53;102024.38;5055352;28;20285;-64
2023/08/18 01:14:15;;;;;;;;;;;;;;;25.17;47.44;102018.03;5049152;28;19916;-65
2023/08/18 01:16:46;;;;;;;;;;;;;;;25.19;47.37;102010.69;5059206;28;19917;-63
2023/08/18 01:19:14;;;;;;;;;;;;;;;25.18;47.39;102006.38;5056012;28;19916;-64
2023/08/18 01:21:40;;;;;;;;;;;;;;;25.15;47.52;102006.75;5062765;28;19919;-64
2023/08/18 01:24:06;;;;;;;;;;;;;;;25.15;47.62;102006.75;5059835;28;19913;-64
2023/08/18 01:26:31;;;;;;;;;;;;;;;25.16;47.71;101994.25;5059543;28;20070;-63
2023/08/18 01:28:57;;;;;;;;;;;;;;;25.15;47.48;102006.75;5059993;28;19920;-64
2023/08/18 01:31:28;;;;;;;;;;;;;;;25.15;47.58;101995.25;5060311;28;19923;-64
2023/08/18 01:33:56;;;;;;;;;;;;;;;25.16;47.54;101996.91;5056673;28;19939;-64
2023/08/18 01:36:23;;;;;;;;;;;;;;;25.16;47.75;101992.41;5053226;28;20361;-63
2023/08/18 01:38:50;;;;;;;;;;;;;;;25.14;47.72;101988.28;5055634;28;19916;-63
2023/08/18 01:41:19;;;;;;;;;;;;;;;25.16;47.52;101981.75;5055815;28;20389;-64
2023/08/18 01:43:44;;;;;;;;;;;;;;;25.16;47.40;101980.91;5055703;28;19982;-64
2023/08/18 01:46:10;;;;;;;;;;;;;;;25.17;47.35;101986.06;5058234;28;19912;-64
2023/08/18 01:48:35;;;;;;;;;;;;;;;25.16;47.62;101980.91;5089512;27;19922;-64
2023/08/18 01:51:00;;;;;;;;;;;;;;;25.10;47.75;101979.81;5055451;28;20366;-63
2023/08/18 01:53:26;;;;;;;;;;;;;;;25.16;47.49;101975.59;5084693;27;19986;-63
2023/08/18 01:55:51;;;;;;;;;;;;;;;25.13;47.58;101974.09;5057896;28;19963;-63
2023/08/18 01:58:18;;;;;;;;;;;;;;;25.11;47.63;101968.13;5050204;28;19986;-64
2023/08/18 02:00:43;;;;;;;;;;;;;;;25.14;47.55;101973.13;5074250;28;20571;-64
2023/08/18 02:03:08;;;;;;;;;;;;;;;25.12;47.67;101966.28;5089151;27;20054;-64
2023/08/18 02:05:37;;;;;;;;;;;;;;;25.13;47.59;101971.44;5054090;28;19924;-63
2023/08/18 02:08:03;;;;;;;;;;;;;;;25.13;47.51;101967.94;5064579;28;19922;-64
2023/08/18 02:10:29;;;;;;;;;;;;;;;25.14;47.55;101962.44;5059752;28;20270;-63
2023/08/18 02:12:56;;;;;;;;;;;;;;;25.10;47.51;101958.47;5055738;28;20647;-64
2023/08/18 02:15:21;;;;;;;;;;;;;;;25.15;47.53;101949.94;5052386;28;19916;-64
2023/08/18 02:17:46;;;;;;;;;;;;;;;25.14;47.40;101950.97;5055664;28;19932;-62
2023/08/18 02:20:12;;;;;;;;;;;;;;;25.11;47.57;101945.97;5051941;28;19966;-63
2023/08/18 02:22:37;;;;;;;;;;;;;;;25.12;47.69;101943.13;5051104;28;19998;-63
2023/08/18 02:25:03;;;;;;;;;;;;;;;25.16;47.52;101935.59;5060368;28;20014;-63
2023/08/18 02:27:28;;;;;;;;;;;;;;;25.13;47.54;101935.97;5071231;28;20444;-63
2023/08/18 02:29:54;;;;;;;;;;;;;;;25.09;47.58;101940.84;5054757;28;19963;-63
2023/08/18 02:32:19;;;;;;;;;;;;;;;25.10;47.58;101947.81;5052253;28;19920;-63
2023/08/18 02:34:45;;;;;;;;;;;;;;;25.09;47.73;101942.69;5057299;28;19923;-64
2023/08/18 02:37:13;;;;;;;;;;;;;;;25.13;47.49;101943.94;5064116;28;20029;-64
2023/08/18 02:39:38;;;;;;;;;;;;;;;25.13;47.52;101925.28;5055407;28;20501;-64
2023/08/18 02:42:04;;;;;;;;;;;;;;;25.15;47.50;101936.63;5083191;28;19978;-63
2023/08/18 02:44:30;;;;;;;;;;;;;;;25.11;47.44;101933.47;5059372;28;20410;-63
2023/08/18 02:46:56;;;;;;;;;;;;;;;25.07;47.62;101934.88;5047346;28;19920;-64
2023/08/18 02:49:21;;;;;;;;;;;;;;;25.09;47.38;101932.84;5051851;28;19954;-63
2023/08/18 02:51:47;;;;;;;;;;;;;;;25.08;47.68;101933.88;5059993;28;19916;-63
2023/08/18 02:54:13;;;;;;;;;;;;;;;25.08;47.65;101925.88;5056005;28;19991;-63
2023/08/18 02:56:38;;;;;;;;;;;;;;;25.09;47.61;101924.03;5083450;27;20006;-63
2023/08/18 02:59:06;;;;;;;;;;;;;;;25.12;47.58;101928.97;5055916;28;19924;-63
2023/08/18 03:01:32;;;;;;;;;;;;;;;25.12;47.74;101932.47;5082318;27;19927;-62
2023/08/18 03:03:59;;;;;;;;;;;;;;;25.09;47.57;101934.69;5052171;28;20605;-63
2023/08/18 03:06:24;;;;;;;;;;;;;;;25.07;47.73;101924.22;5050990;28;19917;-63
2023/08/18 03:08:50;;;;;;;;;;;;;;;25.10;47.64;101920.34;5071451;28;20014;-63
2023/08/18 03:11:15;;;;;;;;;;;;;;;24.93;47.61;101895.72;5056877;28;19927;-63
2023/08/18 03:13:41;;;;;;;;;;;;;;;25.10;47.53;101917.69;5056564;28;19967;-64
2023/08/18 03:16:06;;;;;;;;;;;;;;;25.05;47.60;101923.59;5065049;28;19923;-63
2023/08/18 03:18:33;;;;;;;;;;;;;;;25.08;47.61;101927.72;5056910;28;19955;-64
2023/08/18 03:21:00;;;;;;;;;;;;;;;25.09;47.57;101929.34;5087432;27;19927;-64
2023/08/18 03:23:25;;;;;;;;;;;;;;;25.11;47.41;101930.81;5055343;28;19924;-64
2023/08/18 03:25:51;;;;;;;;;;;;;;;25.08;47.53;101927.72;5058463;28;19939;-64
2023/08/18 03:28:16;;;;;;;;;;;;;;;25.09;47.47;101927.53;5057577;28;20539;-63
2023/08/18 03:30:42;;;;;;;;;;;;;;;25.07;47.64;101928.72;5053654;28;19968;-64
2023/08/18 03:33:08;;;;;;;;;;;;;;;25.09;47.62;101929.34;5053112;28;19924;-63
2023/08/18 03:35:35;;;;;;;;;;;;;;;25.07;47.59;101926.06;5058738;28;19916;-64
2023/08/18 03:38:01;;;;;;;;;;;;;;;25.07;47.67;101937.53;5053720;28;19925;-63
2023/08/18 03:40:27;;;;;;;;;;;;;;;25.08;47.79;101935.69;5080067;28;19922;-63
2023/08/18 03:42:52;;;;;;;;;;;;;;;25.03;47.88;101930.94;5053063;28;19920;-64
2023/08/18 03:45:18;;;;;;;;;;;;;;;25.04;47.61;101932.59;5061122;28;19960;-63
2023/08/18 03:47:43;;;;;;;;;;;;;;;25.04;47.68;101929.09;5062337;28;20435;-64
2023/08/18 03:50:09;;;;;;;;;;;;;;;25.04;47.76;101932.59;5069773;28;19959;-64
2023/08/18 03:52:35;;;;;;;;;;;;;;;25.06;47.45;101935.91;5055051;28;20031;-64
2023/08/18 03:55:00;;;;;;;;;;;;;;;25.08;47.77;101917.06;5059300;28;20402;-63
2023/08/18 03:57:25;;;;;;;;;;;;;;;25.03;47.61;101920.28;5084701;27;19920;-63
2023/08/18 03:59:53;;;;;;;;;;;;;;;25.06;47.62;101919.91;5061513;28;20011;-63
2023/08/18 04:02:18;;;;;;;;;;;;;;;25.09;47.64;101919.53;5087176;27;19920;-64
2023/08/18 04:04:44;;;;;;;;;;;;;;;25.06;47.55;101916.41;5089577;27;19924;-63
2023/08/18 04:07:09;;;;;;;;;;;;;;;25.02;47.78;101918.63;5060792;28;19927;-63
2023/08/18 04:09:35;;;;;;;;;;;;;;;25.04;47.64;101929.94;5082056;28;20535;-64
2023/08/18 04:12:00;;;;;;;;;;;;;;;25.06;47.63;101919.09;5057107;28;20013;-63
2023/08/18 04:14:25;;;;;;;;;;;;;;;25.04;47.62;101929.94;5061042;28;19920;-63
2023/08/18 04:16:51;;;;;;;;;;;;;;;25.06;47.77;101921.75;5057096;28;20702;-64
2023/08/18 04:19:16;;;;;;;;;;;;;;;25.02;47.79;101926.63;5057149;28;19927;-64
2023/08/18 04:21:42;;;;;;;;;;;;;;;25.08;47.61;101925.03;5059197;28;20006;-63
2023/08/18 04:24:07;;;;;;;;;;;;;;;25.03;47.69;101914.13;5060783;28;19950;-63
2023/08/18 04:26:35;;;;;;;;;;;;;;;25.02;47.70;101926.63;5060431;28;19912;-65
2023/08/18 04:29:01;;;;;;;;;;;;;;;25.03;47.66;101925.63;5084234;28;19920;-63
2023/08/18 04:31:26;;;;;;;;;;;;;;;25.03;47.58;101927.44;5062404;28;19927;-63
2023/08/18 04:33:55;;;;;;;;;;;;;;;25.02;47.57;101926.63;5090512;28;20018;-64
2023/08/18 04:36:21;;;;;;;;;;;;;;;25.02;47.80;101915.97;5087730;28;20001;-64
2023/08/18 04:38:46;;;;;;;;;;;;;;;25.03;47.84;101924.78;5055948;28;20362;-64
2023/08/18 04:41:19;;;;;;;;;;;;;;;25.01;47.66;101924.97;5050048;28;20378;-64
2023/08/18 04:43:44;;;;;;;;;;;;;;;25.04;47.54;101921.09;5079562;28;19925;-63
2023/08/18 04:46:09;;;;;;;;;;;;;;;25.03;47.78;101930.94;5052113;28;19920;-63
2023/08/18 04:48:36;;;;;;;;;;;;;;;25.04;47.56;101929.94;5056564;28;19967;-63
2023/08/18 04:51:04;;;;;;;;;;;;;;;25.04;47.65;101935.25;5064029;28;19952;-63
2023/08/18 04:53:30;;;;;;;;;;;;;;;25.00;47.71;101932.16;5056060;28;20383;-63
2023/08/18 04:55:56;;;;;;;;;;;;;;;25.02;47.64;101929.28;5087215;27;19924;-63
2023/08/18 04:58:21;;;;;;;;;;;;;;;24.98;47.84;101931.47;5058307;28;19920;-63
2023/08/18 05:00:47;;;;;;;;;;;;;;;25.02;47.69;101925.81;5063770;28;19943;-64
2023/08/18 05:03:14;;;;;;;;;;;;;;;25.02;47.66;101918.63;5052718;28;20668;-63
2023/08/18 05:05:45;;;;;;;;;;;;;;;25.00;47.85;101921.50;5054542;28;19930;-64
2023/08/18 05:08:10;;;;;;;;;;;;;;;25.02;47.62;101912.47;5086361;27;20290;-64
2023/08/18 05:10:36;;;;;;;;;;;;;;;25.04;47.90;101913.13;5057127;28;19923;-63
2023/08/18 05:13:02;;;;;;;;;;;;;;;24.95;47.83;101905.19;5061767;28;20051;-63
2023/08/18 05:15:28;;;;;;;;;;;;;;;24.98;47.82;101910.16;5052732;28;20321;-63
2023/08/18 05:17:53;;;;;;;;;;;;;;;24.79;47.59;101876.13;5057673;28;20239;-64
2023/08/18 05:20:19;;;;;;;;;;;;;;;24.97;47.64;101903.19;5059331;28;19965;-63
2023/08/18 05:22:44;;;;;;;;;;;;;;;24.98;47.67;101901.34;5059762;28;20469;-63
2023/08/18 05:25:10;;;;;;;;;;;;;;;25.01;47.86;101903.66;5081648;27;19947;-63
2023/08/18 05:27:36;;;;;;;;;;;;;;;24.96;47.96;101908.72;5059067;28;19977;-64
2023/08/18 05:30:04;;;;;;;;;;;;;;;25.01;47.66;101906.31;5057758;28;19928;-63
2023/08/18 05:32:30;;;;;;;;;;;;;;;25.01;47.73;101914.31;5054015;28;19923;-63
2023/08/18 05:34:55;;;;;;;;;;;;;;;24.99;47.64;101911.84;5050998;28;19921;-63
2023/08/18 05:37:21;;;;;;;;;;;;;;;25.05;47.58;101920.09;5083065;27;19995;-63
2023/08/18 05:39:46;;;;;;;;;;;;;;;24.99;47.72;101914.50;5056443;28;19924;-65
2023/08/18 05:42:12;;;;;;;;;;;;;;;25.02;47.61;101909.81;5056985;28;19935;-64
2023/08/18 05:44:37;;;;;;;;;;;;;;;24.97;47.79;101913.03;5061014;28;19927;-63
2023/08/18 05:47:03;;;;;;;;;;;;;;;24.97;47.80;101908.53;5053020;28;20516;-64
2023/08/18 05:49:29;;;;;;;;;;;;;;;24.99;47.81;101906.53;5055128;28;20639;-64
2023/08/18 05:51:54;;;;;;;;;;;;;;;24.99;47.81;101898.53;5058213;28;20465;-63
2023/08/18 05:54:20;;;;;;;;;;;;;;;24.96;47.83;101901.53;5058785;28;19916;-63
2023/08/18 05:56:45;;;;;;;;;;;;;;;24.98;47.87;101898.69;5051110;28;20022;-63
2023/08/18 05:59:10;;;;;;;;;;;;;;;24.94;48.00;101895.53;5055939;28;20032;-64
2023/08/18 06:01:36;;;;;;;;;;;;;;;24.97;47.84;101895.19;5087795;27;19924;-63
2023/08/18 06:04:02;;;;;;;;;;;;;;;24.95;47.87;101891.88;5056870;28;19967;-63
2023/08/18 06:06:27;;;;;;;;;;;;;;;24.99;47.74;101895.84;5052436;28;20008;-64
2023/08/18 06:08:52;;;;;;;;;;;;;;;24.96;47.72;101896.22;5055435;28;20400;-63
2023/08/18 06:11:18;;;;;;;;;;;;;;;24.96;47.88;101885.56;5058476;28;20336;-63
2023/08/18 06:13:43;;;;;;;;;;;;;;;25.02;47.79;101886.66;5050112;28;19924;-63
2023/08/18 06:16:08;;;;;;;;;;;;;;;24.97;47.67;101894.38;5052841;28;19966;-64
2023/08/18 06:18:34;;;;;;;;;;;;;;;25.02;47.76;101896.50;5051582;28;19931;-63
2023/08/18 06:21:00;;;;;;;;;;;;;;;24.98;47.95;101891.50;5052662;28;19934;-64
2023/08/18 06:23:25;;;;;;;;;;;;;;;24.94;47.96;101892.88;5043824;28;19935;-63
2023/08/18 06:25:50;;;;;;;;;;;;;;;24.97;47.94;101891.69;5052604;28;19980;-64
2023/08/18 06:28:16;;;;;;;;;;;;;;;24.91;47.96;101898.59;5063520;28;20396;-63
2023/08/18 06:30:41;;;;;;;;;;;;;;;24.99;47.67;101895.00;5060616;28;19921;-63
2023/08/18 06:33:06;;;;;;;;;;;;;;;24.96;47.79;101893.53;5053391;28;19913;-64
2023/08/18 06:35:32;;;;;;;;;;;;;;;24.93;47.72;101893.91;5053384;28;20051;-63
2023/08/18 06:37:57;;;;;;;;;;;;;;;24.96;47.65;101896.22;5055860;28;19927;-64
2023/08/18 06:40:22;;;;;;;;;;;;;;;24.95;47.91;101899.84;5051019;28;19916;-64
2023/08/18 06:42:49;;;;;;;;;;;;;;;24.91;47.86;101909.25;5056146;28;19932;-63
2023/08/18 06:45:14;;;;;;;;;;;;;;;24.95;47.88;101907.03;5073415;28;19924;-64
2023/08/18 06:47:40;;;;;;;;;;;;;;;24.94;48.04;101898.22;5052791;28;20019;-63
2023/08/18 06:50:06;;;;;;;;;;;;;;;24.96;47.81;101890.88;5054094;28;19963;-62
2023/08/18 06:52:34;;;;;;;;;;;;;;;24.95;47.96;101896.38;5050956;28;19924;-63
2023/08/18 06:54:59;;;;;;;;;;;;;;;24.98;47.78;101891.50;5055601;28;20382;-63
2023/08/18 06:57:25;;;;;;;;;;;;;;;24.99;47.60;101895.00;5052331;28;19916;-64
2023/08/18 06:59:51;;;;;;;;;;;;;;;24.96;47.96;101898.03;5062234;28;20341;-65
2023/08/18 07:02:17;;;;;;;;;;;;;;;25.00;47.60;101900.16;5052287;28;19925;-63
2023/08/18 07:04:42;;;;;;;;;;;;;;;24.98;47.71;101896.84;5052700;28;19920;-63
2023/08/18 07:07:07;;;;;;;;;;;;;;;24.96;47.90;101896.22;5053069;28;19970;-65
2023/08/18 07:09:33;;;;;;;;;;;;;;;24.99;47.71;101901.19;5056827;28;19924;-64
2023/08/18 07:11:59;;;;;;;;;;;;;;;25.02;47.64;101899.16;5063263;28;19969;-64
2023/08/18 07:14:24;;;;;;;;;;;;;;;24.98;47.94;101904.00;5057824;28;19917;-65
2023/08/18 07:16:49;;;;;;;;;;;;;;;24.99;47.82;101901.19;5056840;28;20375;-64
2023/08/18 07:19:15;;;;;;;;;;;;;;;24.92;47.83;101900.25;5066130;28;19920;-64
2023/08/18 07:21:40;;;;;;;;;;;;;;;24.98;48.04;101907.50;5053200;28;19924;-65
2023/08/18 07:24:06;;;;;;;;;;;;;;;24.98;47.79;101909.34;5086204;27;19920;-64
2023/08/18 07:26:31;;;;;;;;;;;;;;;24.98;48.00;101907.50;5060755;28;19973;-64
2023/08/18 07:28:56;;;;;;;;;;;;;;;24.93;47.92;101919.72;5064086;28;19928;-64
2023/08/18 07:31:22;;;;;;;;;;;;;;;25.01;47.91;101909.00;5054619;28;19917;-64
2023/08/18 07:33:47;;;;;;;;;;;;;;;24.96;47.82;101908.72;5057993;28;20270;-65
2023/08/18 07:36:13;;;;;;;;;;;;;;;24.98;47.81;101910.16;5058315;28;20022;-64
2023/08/18 07:38:38;;;;;;;;;;;;;;;24.98;47.78;101904.84;5057492;28;20032;-65
2023/08/18 07:41:03;;;;;;;;;;;;;;;25.00;47.81;101899.34;5055049;28;20271;-64
2023/08/18 07:43:29;;;;;;;;;;;;;;;24.99;47.81;101900.34;5056876;28;19924;-64
2023/08/18 07:45:55;;;;;;;;;;;;;;;24.98;47.83;101899.50;5056749;28;19931;-65
2023/08/18 07:48:20;;;;;;;;;;;;;;;24.94;48.07;101902.72;5059483;28;20585;-64
2023/08/18 07:50:46;;;;;;;;;;;;;;;24.96;48.16;101904.19;5055003;28;19972;-65
2023/08/18 07:53:11;;;;;;;;;;;;;;;24.97;48.01;101902.38;5054814;28;19963;-65
2023/08/18 07:55:37;;;;;;;;;;;;;;;24.96;47.91;101901.53;5052557;28;19924;-64
2023/08/18 07:58:03;;;;;;;;;;;;;;;24.96;48.13;101904.19;5055997;28;20018;-64
2023/08/18 08:00:30;;;;;;;;;;;;;;;24.95;48.04;101899.84;5055645;28;20011;-65
2023/08/18 08:02:56;;;;;;;;;;;;;;;24.96;47.96;101895.38;5053394;28;19928;-65
2023/08/18 08:05:22;;;;;;;;;;;;;;;24.95;47.99;101891.03;5048854;28;20025;-65
2023/08/18 08:07:48;;;;;;;;;;;;;;;24.94;47.83;101889.38;5069153;28;20050;-65
2023/08/18 08:10:13;;;;;;;;;;;;;;;24.94;48.07;101900.03;5050274;28;20408;-65
2023/08/18 08:12:39;;;;;;;;;;;;;;;24.94;47.99;101887.56;5057421;28;19920;-65
2023/08/18 08:15:05;;;;;;;;;;;;;;;24.95;47.98;101896.38;5047733;28;19959;-65
2023/08/18 08:17:32;;;;;;;;;;;;;;;24.93;48.12;101890.41;5050559;28;20017;-65
2023/08/18 08:19:59;;;;;;;;;;;;;;;24.93;47.98;101887.75;5052133;28;20678;-65
2023/08/18 08:22:25;;;;;;;;;;;;;;;24.87;48.19;101894.66;5053179;28;19924;-64
2023/08/18 08:24:54;;;;;;;;;;;;;;;24.87;48.16;101893.84;5046504;28;19961;-64
2023/08/18 08:27:20;;;;;;;;;;;;;;;24.84;48.41;101902.19;5055631;28;19921;-64
2023/08/18 08:29:45;;;;;;;;;;;;;;;24.89;48.29;101894.47;5085588;28;20386;-64
2023/08/18 08:32:10;;;;;;;;;;;;;;;24.81;48.36;101892.75;5051899;28;19969;-64
2023/08/18 08:34:40;;;;;;;;;;;;;;;24.80;48.49;101899.09;5055884;28;19920;-65
2023/08/18 08:37:05;;;;;;;;;;;;;;;24.75;48.47;101888.16;5062261;28;19929;-64
2023/08/18 08:39:31;;;;;;;;;;;;;;;24.74;48.67;101889.16;5084347;28;19924;-64
2023/08/18 08:41:56;;;;;;;;;;;;;;;24.75;48.57;101892.66;5052653;28;19979;-64
2023/08/18 08:44:23;;;;;;;;;;;;;;;24.71;48.79;101894.88;5052544;28;20035;-65
2023/08/18 08:46:49;;;;;;;;;;;;;;;24.77;48.53;101896.78;5053448;28;20687;-64
2023/08/18 08:49:15;;;;;;;;;;;;;;;24.75;48.77;101895.31;5055262;28;20034;-64
2023/08/18 08:51:41;;;;;;;;;;;;;;;24.76;48.54;101889.81;5068248;28;19932;-64
2023/08/18 08:54:07;;;;;;;;;;;;;;;24.77;48.54;101886.13;5057890;28;19925;-64
2023/08/18 08:56:34;;;;;;;;;;;;;;;24.78;48.60;101884.31;5059580;28;19920;-63
2023/08/18 08:59:00;;;;;;;;;;;;;;;24.76;48.82;101880.97;5051023;28;19927;-64
2023/08/18 09:01:26;;;;;;;;;;;;;;;24.79;48.63;101870.81;5056995;28;20720;-63
2023/08/18 09:03:51;;;;;;;;;;;;;;;24.73;49.06;101871.53;5053991;28;19920;-63
2023/08/18 09:06:17;;;;;;;;;;;;;;;24.80;48.64;101883.13;5050254;28;19920;-64
2023/08/18 09:08:42;;;;;;;;;;;;;;;24.81;48.67;101875.94;5056709;28;19926;-63
2023/08/18 09:11:08;;;;;;;;;;;;;;;24.85;48.66;101870.03;5054090;28;19921;-64
2023/08/18 09:13:35;;;;;;;;;;;;;;;24.86;48.78;101866.38;5054107;28;19913;-65
2023/08/18 09:16:02;;;;;;;;;;;;;;;24.86;48.71;101868.19;5060274;28;19962;-64
2023/08/18 09:18:27;;;;;;;;;;;;;;;24.84;48.62;101871.06;5057457;28;19998;-64
2023/08/18 09:20:54;;;;;;;;;;;;;;;24.86;48.78;101863.69;5059667;28;20015;-64
2023/08/18 09:23:19;;;;;;;;;;;;;;;24.85;48.68;101864.72;5059932;28;20263;-64
2023/08/18 09:25:45;;;;;;;;;;;;;;;24.88;48.58;101861.66;5055378;28;19936;-64
2023/08/18 09:28:10;;;;;;;;;;;;;;;24.87;48.59;101857.34;5065044;28;19919;-65
2023/08/18 09:30:35;;;;;;;;;;;;;;;24.88;48.66;101860.84;5052228;28;19924;-64
2023/08/18 09:33:01;;;;;;;;;;;;;;;24.87;48.74;101860.03;5054382;28;19920;-64
2023/08/18 09:35:31;;;;;;;;;;;;;;;24.91;48.67;101858.63;5057309;28;20463;-64
2023/08/18 09:37:57;;;;;;;;;;;;;;;24.90;48.63;101856.16;5055234;28;20341;-64
2023/08/18 09:40:23;;;;;;;;;;;;;;;24.88;48.58;101860.84;5059907;28;20405;-64
2023/08/18 09:42:49;;;;;;;;;;;;;;;24.90;48.92;101866.81;5053884;28;20382;-64
2023/08/18 09:45:14;;;;;;;;;;;;;;;24.90;48.66;101866.81;5060744;28;19927;-64
2023/08/18 09:47:42;;;;;;;;;;;;;;;24.88;48.80;101866.19;5062396;28;19921;-64
2023/08/18 09:50:09;;;;;;;;;;;;;;;24.89;49.05;101862.50;5057210;28;19916;-64
2023/08/18 09:52:35;;;;;;;;;;;;;;;24.93;48.57;101861.91;5056472;28;20289;-65
2023/08/18 09:55:07;;;;;;;;;;;;;;;24.94;48.72;101863.56;5060299;28;19917;-65
2023/08/18 09:57:47;;;;;;;;;;;;;;;24.94;48.72;101858.25;5064135;28;19922;-64
2023/08/18 10:00:14;;;;;;;;;;;;;;;24.92;48.89;101851.44;5059895;28;19916;-64
2023/08/18 10:02:42;;;;;;;;;;;;;;;24.93;49.00;101853.94;5060091;28;19970;-64
2023/08/18 10:05:08;;;;;;;;;;;;;;;24.98;48.83;101842.72;5063358;28;19920;-65
2023/08/18 10:07:34;;;;;;;;;;;;;;;24.94;48.87;101831.59;5056738;28;20400;-65
2023/08/18 10:09:59;;;;;;;;;;;;;;;24.97;48.96;101835.75;5060877;28;19969;-65
2023/08/18 10:12:25;;;;;;;;;;;;;;;24.96;48.78;101836.75;5060361;28;19924;-64
2023/08/18 10:14:51;;;;;;;;;;;;;;;24.77;48.97;101805.38;5062052;28;19912;-64
2023/08/18 10:17:21;;;;;;;;;;;;;;;25.00;48.93;101835.41;5063753;28;19920;-65
2023/08/18 10:19:54;;;;;;;;;;;;;;;24.98;48.92;101830.22;5056678;28;19923;-64
2023/08/18 10:22:21;;;;;;;;;;;;;;;24.98;48.65;101837.41;5055195;28;20035;-64
2023/08/18 10:24:47;;;;;;;;;;;;;;;25.00;48.84;101838.06;5061797;28;20390;-64
2023/08/18 10:27:25;;;;;;;;;;;;;;;24.98;48.88;101832.06;5071480;28;19958;-64
2023/08/18 10:29:50;;;;;;;;;;;;;;;24.98;49.18;101837.41;5048220;28;19916;-64
2023/08/18 10:32:17;;;;;;;;;;;;;;;24.96;48.85;101834.09;5064850;28;19926;-65
2023/08/18 10:34:43;;;;;;;;;;;;;;;24.97;49.05;101833.91;5056333;28;19924;-64
2023/08/18 10:37:08;;;;;;;;;;;;;;;24.98;48.85;101834.72;5060935;28;19917;-64
2023/08/18 10:39:37;;;;;;;;;;;;;;;24.99;49.18;101837.22;5068618;28;20028;-64
2023/08/18 10:42:07;;;;;;;;;;;;;;;25.03;48.98;101828.84;5054972;28;19961;-64
2023/08/18 10:44:33;;;;;;;;;;;;;;;24.97;49.01;101820.59;5057470;28;19934;-64
2023/08/18 10:47:00;;;;;;;;;;;;;;;24.99;49.11;101815.06;5090295;27;19923;-64
2023/08/18 10:49:25;;;;;;;;;;;;;;;24.98;48.98;101813.41;5072887;28;20451;-64
2023/08/18 10:51:52;;;;;;;;;;;;;;;25.00;49.03;101808.75;5067433;28;20027;-63
2023/08/18 10:54:18;;;;;;;;;;;;;;;25.03;48.93;101812.88;5066377;28;20324;-64
2023/08/18 10:56:43;;;;;;;;;;;;;;;25.00;49.16;101817.56;5072768;28;19920;-64
2023/08/18 10:59:08;;;;;;;;;;;;;;;25.00;49.00;101814.91;5053834;28;19920;-64
2023/08/18 11:01:35;;;;;;;;;;;;;;;24.98;49.19;101816.09;5061015;28;20011;-65
2023/08/18 11:04:00;;;;;;;;;;;;;;;25.02;48.94;101820.03;5066202;28;19927;-64
2023/08/18 11:06:26;;;;;;;;;;;;;;;25.04;49.02;101809.19;5058454;28;19920;-64
2023/08/18 11:08:53;;;;;;;;;;;;;;;25.02;48.92;101803.22;5061672;28;20005;-64
2023/08/18 11:11:19;;;;;;;;;;;;;;;25.06;49.15;101799.97;5054071;28;19916;-64
2023/08/18 11:13:44;;;;;;;;;;;;;;;25.06;48.85;101799.16;5054038;28;20318;-64
2023/08/18 11:16:10;;;;;;;;;;;;;;;25.06;49.08;101805.31;5095570;27;19927;-64
2023/08/18 11:18:36;;;;;;;;;;;;;;;25.02;49.08;101801.38;5057351;28;19921;-64
2023/08/18 11:21:01;;;;;;;;;;;;;;;25.07;49.17;101803.47;5060420;28;19926;-65
2023/08/18 11:23:26;;;;;;;;;;;;;;;25.09;49.10;101801.44;5056973;28;19967;-63
2023/08/18 11:25:52;;;;;;;;;;;;;;;25.09;48.97;101801.44;5060709;28;19959;-64
2023/08/18 11:28:17;;;;;;;;;;;;;;;25.04;49.14;101799.34;5066138;28;19998;-64
2023/08/18 11:30:43;;;;;;;;;;;;;;;25.08;48.91;101792.63;5058741;28;19979;-65
2023/08/18 11:33:10;;;;;;;;;;;;;;;25.07;48.93;101796.28;5067101;28;19918;-64
2023/08/18 11:35:36;;;;;;;;;;;;;;;25.07;48.91;101782.16;5063052;28;19942;-65
2023/08/18 11:38:01;;;;;;;;;;;;;;;25.06;49.28;101784.00;5070323;28;19919;-64
2023/08/18 11:40:27;;;;;;;;;;;;;;;25.06;49.06;101778.66;5061171;28;19916;-65
2023/08/18 11:42:53;;;;;;;;;;;;;;;25.05;49.05;101776.19;5062661;28;19972;-65
2023/08/18 11:45:19;;;;;;;;;;;;;;;25.04;49.38;101780.69;5059591;28;19924;-64
2023/08/18 11:47:46;;;;;;;;;;;;;;;25.05;49.30;101779.69;5064619;28;19916;-64
2023/08/18 11:50:19;;;;;;;;;;;;;;;25.04;49.13;101767.38;5059666;28;20564;-65
2023/08/18 11:52:46;;;;;;;;;;;;;;;25.06;49.18;101770.66;5065327;28;20242;-65
2023/08/18 11:55:12;;;;;;;;;;;;;;;25.07;49.23;101766.16;5063142;28;19923;-63
2023/08/18 11:57:41;;;;;;;;;;;;;;;25.05;49.35;101762.88;5087638;27;20276;-64
2023/08/18 12:00:13;;;;;;;;;;;;;;;25.08;49.16;101762.47;5063089;28;19920;-65
2023/08/18 12:02:46;;;;;;;;;;;;;;;25.09;49.35;101756.94;5057753;28;20018;-65
2023/08/18 12:05:22;;;;;;;;;;;;;;;25.08;49.42;101763.31;5064036;28;19973;-65
2023/08/18 12:07:57;;;;;;;;;;;;;;;25.10;49.38;101750.59;5059771;28;20315;-64
2023/08/18 12:10:23;;;;;;;;;;;;;;;25.11;49.39;101748.75;5061556;28;19916;-65
2023/08/18 12:12:51;;;;;;;;;;;;;;;25.10;49.29;101747.13;5068431;28;20492;-64
2023/08/18 12:15:17;;;;;;;;;;;;;;;25.13;49.09;101750.22;5059950;28;19916;-65
2023/08/18 12:17:43;;;;;;;;;;;;;;;25.11;49.19;101744.25;5063878;28;19920;-64
2023/08/18 12:20:08;;;;;;;;;;;;;;;25.08;49.13;101744.66;5058385;28;20023;-64
2023/08/18 12:22:34;;;;;;;;;;;;;;;25.09;49.10;101740.97;5053335;28;21005;-64
2023/08/18 12:24:59;;;;;;;;;;;;;;;25.08;49.50;101736.66;5063481;28;20431;-64
2023/08/18 12:27:26;;;;;;;;;;;;;;;25.13;49.43;101728.06;5066986;28;19947;-64
2023/08/18 12:29:52;;;;;;;;;;;;;;;25.13;49.20;101731.56;5059628;28;20401;-64